createdAt,value
2024-02-05T00:00:11.385Z,97362.81
2024-02-05T00:02:59.549Z,97363.98
2024-02-05T00:05:28.157Z,97367.33
2024-02-05T00:07:59.122Z,97365.17
2024-02-05T00:10:28.196Z,97365.33
2024-02-05T00:12:56.508Z,97362.96
2024-02-05T00:15:24.600Z,97355.80
2024-02-05T00:17:52.955Z,97349.14
2024-02-05T00:20:21.000Z,97341.48
2024-02-05T00:22:49.077Z,97340.68
2024-02-05T00:25:17.253Z,97337.66
2024-02-05T00:27:45.463Z,97334.31
2024-02-05T00:30:14.323Z,97328.98
2024-02-05T00:32:42.595Z,97330.45
2024-02-05T00:35:10.858Z,97328.02
2024-02-05T00:37:39.560Z,97322.10
2024-02-05T00:40:08.846Z,97314.62
2024-02-05T00:42:37.300Z,97301.93
2024-02-05T00:45:06.466Z,97295.46
2024-02-05T00:47:34.632Z,97282.44
2024-02-05T00:50:03.057Z,97285.19
2024-02-05T00:52:31.329Z,97281.27
2024-02-05T00:54:59.579Z,97273.95
2024-02-05T00:57:28.058Z,97270.51
2024-02-05T00:59:56.403Z,97265.02
2024-02-05T01:02:24.753Z,97255.80
2024-02-05T01:04:53.262Z,97248.50
2024-02-05T01:07:21.742Z,97248.55
2024-02-05T01:09:49.973Z,97233.92
2024-02-05T01:12:18.166Z,97232.03
2024-02-05T01:14:46.357Z,97236.77
2024-02-05T01:17:14.492Z,97231.98
2024-02-05T01:19:42.641Z,97223.05
2024-02-05T01:22:10.774Z,97226.60
2024-02-05T01:24:39.146Z,97225.96
2024-02-05T01:27:07.305Z,97230.11
2024-02-05T01:29:35.423Z,97236.66
2024-02-05T01:32:03.591Z,97232.63
2024-02-05T01:34:32.323Z,97225.74
2024-02-05T01:37:00.793Z,97213.80
2024-02-05T01:39:28.914Z,97217.62
2024-02-05T01:41:57.101Z,97211.22
2024-02-05T01:44:25.344Z,97209.44
2024-02-05T01:46:53.556Z,97203.63
2024-02-05T01:49:21.700Z,97196.52
2024-02-05T01:51:51.714Z,97195.73
2024-02-05T01:54:20.237Z,97195.34
2024-02-05T01:56:48.488Z,97194.91
2024-02-05T01:59:17.339Z,97199.80
2024-02-05T02:01:45.701Z,97196.36
2024-02-05T02:04:14.029Z,97191.95
2024-02-05T02:06:42.250Z,97184.11
2024-02-05T02:09:15.128Z,97181.39
2024-02-05T02:11:43.427Z,97169.66
2024-02-05T02:14:11.574Z,97161.31
2024-02-05T02:16:39.739Z,97158.48
2024-02-05T02:19:23.334Z,97158.57
2024-02-05T02:26:34.248Z,97177.84
2024-02-05T02:29:02.505Z,97169.93
2024-02-05T02:31:30.766Z,97170.41
2024-02-05T02:34:02.870Z,97172.32
2024-02-05T02:36:36.819Z,97176.04
2024-02-05T02:39:12.466Z,97172.66
2024-02-05T02:41:41.402Z,97163.25
2024-02-05T02:44:09.555Z,97161.59
2024-02-05T02:46:37.835Z,97160.20
2024-02-05T02:49:06.139Z,97160.05
2024-02-05T02:51:34.353Z,97163.48
2024-02-05T02:54:04.120Z,97168.55
2024-02-05T02:56:32.442Z,97169.47
2024-02-05T02:59:00.494Z,97173.11
2024-02-05T03:01:29.178Z,97162.20
2024-02-05T03:03:57.583Z,97158.49
2024-02-05T03:06:25.885Z,97151.16
2024-02-05T03:08:53.937Z,97150.60
2024-02-05T03:11:22.119Z,97154.48
2024-02-05T03:13:50.323Z,97151.72
2024-02-05T03:16:18.400Z,97152.16
2024-02-05T03:18:47.651Z,97148.50
2024-02-05T03:21:16.469Z,97154.58
2024-02-05T03:23:45.401Z,97147.79
2024-02-05T03:26:14.891Z,97138.65
2024-02-05T03:28:43.114Z,97129.13
2024-02-05T03:31:11.372Z,97117.45
2024-02-05T03:33:39.696Z,97110.17
2024-02-05T03:36:07.905Z,97111.19
2024-02-05T03:38:36.079Z,97115.77
2024-02-05T03:41:04.395Z,97116.78
2024-02-05T03:43:32.600Z,97111.73
2024-02-05T03:46:00.826Z,97107.75
2024-02-05T03:48:29.103Z,97115.94
2024-02-05T03:50:57.336Z,97111.78
2024-02-05T03:53:25.451Z,97113.34
2024-02-05T03:55:53.673Z,97118.55
2024-02-05T03:58:21.960Z,97121.46
2024-02-05T04:00:50.302Z,97115.17
2024-02-05T04:03:18.432Z,97115.64
2024-02-05T04:05:46.851Z,97121.35
2024-02-05T04:08:15.615Z,97119.36
2024-02-05T04:10:43.664Z,97110.59
2024-02-05T04:13:11.738Z,97106.30
2024-02-05T04:15:39.974Z,97117.64
2024-02-05T04:18:08.203Z,97118.45
2024-02-05T04:20:36.454Z,97116.61
2024-02-05T04:23:06.860Z,97119.20
2024-02-05T04:25:35.260Z,97118.34
2024-02-05T04:28:03.754Z,97112.36
2024-02-05T04:30:38.141Z,97103.11
2024-02-05T04:33:08.740Z,97107.32
2024-02-05T04:35:37.343Z,97103.88
2024-02-05T04:38:05.411Z,97098.92
2024-02-05T04:40:33.536Z,97105.02
2024-02-05T04:43:01.665Z,97107.85
2024-02-05T04:45:29.755Z,97106.66
2024-02-05T04:47:57.809Z,97106.78
2024-02-05T04:50:26.245Z,97121.19
2024-02-05T04:52:54.689Z,97124.53
2024-02-05T04:55:23.003Z,97124.73
2024-02-05T04:57:52.235Z,97124.20
2024-02-05T05:00:23.481Z,97133.62
2024-02-05T05:02:51.725Z,97127.53
2024-02-05T05:05:20.201Z,97114.21
2024-02-05T05:07:49.159Z,97110.59
2024-02-05T05:10:17.588Z,97110.55
2024-02-05T05:12:45.760Z,97108.55
2024-02-05T05:15:17.505Z,97105.92
2024-02-05T05:17:46.171Z,97110.81
2024-02-05T05:20:14.582Z,97116.06
2024-02-05T05:22:42.781Z,97110.20
2024-02-05T05:25:10.972Z,97126.81
2024-02-05T05:27:39.257Z,97126.98
2024-02-05T05:30:08.565Z,97126.73
2024-02-05T05:32:36.951Z,97127.25
2024-02-05T05:35:08.577Z,97125.90
2024-02-05T05:37:38.690Z,97124.35
2024-02-05T05:40:07.726Z,97126.98
2024-02-05T05:42:35.919Z,97118.42
2024-02-05T05:45:05.336Z,97107.35
2024-02-05T05:47:34.712Z,97119.13
2024-02-05T05:50:03.492Z,97122.04
2024-02-05T05:52:33.195Z,97123.88
2024-02-05T05:55:01.640Z,97129.48
2024-02-05T05:57:29.923Z,97125.93
2024-02-05T05:59:58.276Z,97123.19
2024-02-05T06:02:26.435Z,97123.77
2024-02-05T06:04:54.676Z,97123.56
2024-02-05T06:07:22.939Z,97128.70
2024-02-05T06:09:51.124Z,97132.82
2024-02-05T06:12:19.244Z,97129.06
2024-02-05T06:14:47.368Z,97128.21
2024-02-05T06:17:15.564Z,97130.70
2024-02-05T06:19:43.780Z,97126.69
2024-02-05T06:22:13.157Z,97132.27
2024-02-05T06:24:41.235Z,97134.23
2024-02-05T06:27:10.474Z,97145.30
2024-02-05T06:29:38.894Z,97152.27
2024-02-05T06:32:07.898Z,97153.48
2024-02-05T06:34:36.196Z,97150.80
2024-02-05T06:37:04.619Z,97148.52
2024-02-05T06:39:32.768Z,97142.44
2024-02-05T06:42:01.350Z,97149.77
2024-02-05T06:44:29.550Z,97144.95
2024-02-05T06:46:57.581Z,97147.09
2024-02-05T06:49:25.761Z,97146.84
2024-02-05T06:51:53.923Z,97149.00
2024-02-05T06:54:22.159Z,97132.91
2024-02-05T06:56:51.260Z,97136.84
2024-02-05T06:59:19.300Z,97147.04
2024-02-05T07:01:47.623Z,97151.36
2024-02-05T07:04:15.875Z,97145.42
2024-02-05T07:06:44.224Z,97151.95
2024-02-05T07:09:13.535Z,97146.56
2024-02-05T07:11:41.750Z,97156.04
2024-02-05T07:14:09.940Z,97163.59
2024-02-05T07:16:38.167Z,97162.19
2024-02-05T07:19:06.505Z,97171.28
2024-02-05T07:21:35.501Z,97175.43
2024-02-05T07:24:03.867Z,97167.96
2024-02-05T07:26:35.425Z,97163.38
2024-02-05T07:29:03.653Z,97157.98
2024-02-05T07:31:31.973Z,97160.14
2024-02-05T07:34:00.217Z,97166.20
2024-02-05T07:36:30.493Z,97162.36
2024-02-05T07:38:59.744Z,97155.37
2024-02-05T07:41:27.909Z,97153.16
2024-02-05T07:43:55.936Z,97154.28
2024-02-05T07:46:24.010Z,97149.08
2024-02-05T07:48:52.613Z,97150.42
2024-02-05T07:51:20.727Z,97151.17
2024-02-05T07:53:50.585Z,97143.80
2024-02-05T07:56:18.764Z,97148.73
2024-02-05T07:58:47.097Z,97145.84
2024-02-05T08:01:15.457Z,97139.20
2024-02-05T08:03:43.988Z,97139.86
2024-02-05T08:06:19.241Z,97139.52
2024-02-05T08:08:47.463Z,97154.23
2024-02-05T08:11:17.294Z,97161.02
2024-02-05T08:13:45.636Z,97156.87
2024-02-05T08:16:13.799Z,97156.97
2024-02-05T08:18:41.933Z,97145.27
2024-02-05T08:21:10.212Z,97149.32
2024-02-05T08:23:39.454Z,97151.54
2024-02-05T08:26:10.428Z,97141.24
2024-02-05T08:28:39.943Z,97149.37
2024-02-05T08:31:09.098Z,97144.58
2024-02-05T08:33:37.407Z,97146.09
2024-02-05T08:36:05.954Z,97146.13
2024-02-05T08:38:34.128Z,97145.02
2024-02-05T08:41:02.287Z,97148.77
2024-02-05T08:43:30.613Z,97150.28
2024-02-05T08:45:58.823Z,97150.54
2024-02-05T08:48:27.014Z,97146.28
2024-02-05T08:50:55.333Z,97144.98
2024-02-05T08:53:23.501Z,97147.25
2024-02-05T08:55:51.712Z,97144.02
2024-02-05T08:58:19.869Z,97147.52
2024-02-05T09:00:50.026Z,97146.33
2024-02-05T09:03:18.411Z,97137.17
2024-02-05T09:05:48.793Z,97131.09
2024-02-05T09:08:17.244Z,97136.48
2024-02-05T09:10:45.612Z,97134.65
2024-02-05T09:13:14.966Z,97131.84
2024-02-05T09:15:44.000Z,97129.68
2024-02-05T09:18:12.396Z,97131.90
2024-02-05T09:20:43.246Z,97131.46
2024-02-05T09:23:11.437Z,97135.48
2024-02-05T09:25:39.613Z,97139.52
2024-02-05T09:28:09.562Z,97137.38
2024-02-05T09:30:41.314Z,97128.86
2024-02-05T09:33:09.922Z,97124.94
2024-02-05T09:35:38.254Z,97122.89
2024-02-05T09:38:08.394Z,97113.67
2024-02-05T09:40:37.812Z,97113.83
2024-02-05T09:43:06.498Z,97112.59
2024-02-05T09:45:34.842Z,97108.92
2024-02-05T09:48:03.087Z,97104.52
2024-02-05T09:50:31.392Z,97098.21
2024-02-05T09:52:59.572Z,97097.72
2024-02-05T09:55:29.184Z,97097.83
2024-02-05T09:57:57.476Z,97101.27
2024-02-05T10:00:25.569Z,97089.04
2024-02-05T10:02:53.887Z,97090.92
2024-02-05T10:05:22.268Z,97089.55
2024-02-05T10:07:50.800Z,97086.10
2024-02-05T10:10:19.393Z,97077.64
2024-02-05T10:12:48.576Z,97072.52
2024-02-05T10:15:16.674Z,97075.27
2024-02-05T10:17:44.965Z,97070.36
2024-02-05T10:20:14.415Z,97071.55
2024-02-05T10:22:49.074Z,97065.41
2024-02-05T10:25:17.740Z,97062.48
2024-02-05T10:27:46.242Z,97059.73
2024-02-05T10:30:17.674Z,97060.55
2024-02-05T10:32:46.269Z,97063.35
2024-02-05T10:35:17.442Z,97062.10
2024-02-05T10:37:45.626Z,97056.41
2024-02-05T10:40:14.275Z,97044.94
2024-02-05T10:42:46.247Z,97042.40
2024-02-05T10:45:15.016Z,97045.95
2024-02-05T10:47:44.460Z,97039.70
2024-02-05T10:50:15.277Z,97030.56
2024-02-05T10:52:43.717Z,97024.41
2024-02-05T10:55:12.337Z,97029.91
2024-02-05T10:57:40.793Z,97028.51
2024-02-05T11:00:28.965Z,97025.44
2024-02-05T11:03:02.204Z,97020.70
2024-02-05T11:05:30.374Z,97016.88
2024-02-05T11:08:06.654Z,97012.89
2024-02-05T11:10:36.795Z,97010.30
2024-02-05T11:13:06.179Z,97006.64
2024-02-05T11:15:36.280Z,97001.64
2024-02-05T11:18:09.522Z,97008.26
2024-02-05T11:20:37.701Z,97008.73
2024-02-05T11:23:05.842Z,97003.09
2024-02-05T11:25:34.130Z,96997.87
2024-02-05T11:28:02.872Z,96990.17
2024-02-05T11:30:31.659Z,96980.59
2024-02-05T11:32:59.807Z,96976.55
2024-02-05T11:35:33.590Z,96972.40
2024-02-05T11:38:09.437Z,96978.76
2024-02-05T11:40:40.444Z,96979.08
2024-02-05T11:43:08.874Z,96970.41
2024-02-05T11:45:37.317Z,96956.48
2024-02-05T11:48:07.093Z,96954.65
2024-02-05T11:50:36.439Z,96954.05
2024-02-05T11:53:04.789Z,96947.27
2024-02-05T11:55:33.970Z,96949.15
2024-02-05T11:58:02.315Z,96948.77
2024-02-05T12:00:30.587Z,96944.09
2024-02-05T12:02:58.754Z,96943.17
2024-02-05T12:05:27.870Z,96945.00
2024-02-05T12:07:56.402Z,96933.70
2024-02-05T12:10:24.752Z,96933.44
2024-02-05T12:12:53.094Z,96930.96
2024-02-05T12:15:30.820Z,96931.98
2024-02-05T12:18:02.754Z,96925.56
2024-02-05T12:20:31.368Z,96911.41
2024-02-05T12:23:01.482Z,96906.95
2024-02-05T12:25:38.175Z,96913.94
2024-02-05T12:28:13.955Z,96902.59
2024-02-05T12:30:42.457Z,96902.90
2024-02-05T12:33:14.967Z,96909.09
2024-02-05T12:35:43.202Z,96904.23
2024-02-05T12:38:11.262Z,96908.83
2024-02-05T12:40:39.568Z,96910.65
2024-02-05T12:43:07.642Z,96908.59
2024-02-05T12:45:35.667Z,96910.17
2024-02-05T12:48:06.553Z,96912.80
2024-02-05T12:50:35.513Z,96906.07
2024-02-05T12:53:03.744Z,96914.67
2024-02-05T12:55:33.870Z,96919.25
2024-02-05T12:58:02.196Z,96922.54
2024-02-05T13:00:30.535Z,96925.02
2024-02-05T13:03:05.308Z,96921.17
2024-02-05T13:05:33.675Z,96925.55
2024-02-05T13:08:02.172Z,96934.27
2024-02-05T13:10:30.614Z,96942.45
2024-02-05T13:12:58.934Z,96953.69
2024-02-05T13:15:27.476Z,96958.16
2024-02-05T13:17:56.917Z,96956.80
2024-02-05T13:20:25.188Z,96957.03
2024-02-05T13:22:53.378Z,96956.54
2024-02-05T13:25:23.761Z,96959.18
2024-02-05T13:27:52.185Z,96960.15
2024-02-05T13:30:20.330Z,96962.99
2024-02-05T13:32:48.876Z,96954.88
2024-02-05T13:35:17.087Z,96954.33
2024-02-05T13:37:46.079Z,96962.95
2024-02-05T13:40:16.982Z,96961.65
2024-02-05T13:42:49.235Z,96964.08
2024-02-05T13:45:17.576Z,96972.61
2024-02-05T13:47:46.523Z,96976.33
2024-02-05T13:50:14.841Z,96976.38
2024-02-05T13:52:44.445Z,96973.96
2024-02-05T13:55:14.251Z,96973.36
2024-02-05T13:57:42.844Z,96974.77
2024-02-05T14:00:12.271Z,96971.27
2024-02-05T14:02:43.196Z,96970.40
2024-02-05T14:05:12.676Z,96973.42
2024-02-05T14:07:41.504Z,96979.27
2024-02-05T14:10:10.363Z,96978.20
2024-02-05T14:12:38.671Z,96969.96
2024-02-05T14:15:07.380Z,96970.61
2024-02-05T14:17:35.699Z,96982.94
2024-02-05T14:20:05.793Z,96982.55
2024-02-05T14:22:34.554Z,96992.33
2024-02-05T14:25:03.017Z,96993.52
2024-02-05T14:27:31.380Z,96995.52
2024-02-05T14:29:59.545Z,97000.41
2024-02-05T14:32:27.697Z,97008.52
2024-02-05T14:34:56.020Z,97014.01
2024-02-05T14:37:24.257Z,97009.59
2024-02-05T14:39:52.351Z,97013.02
2024-02-05T14:42:20.688Z,97009.96
2024-02-05T14:44:48.755Z,97014.16
2024-02-05T14:47:16.950Z,97024.98
2024-02-05T14:49:45.278Z,97030.36
2024-02-05T14:52:13.551Z,97032.77
2024-02-05T14:54:41.889Z,97032.02
2024-02-05T14:57:10.902Z,97038.90
2024-02-05T14:59:39.092Z,97039.44
2024-02-05T15:02:07.360Z,97037.54
2024-02-05T15:04:35.731Z,97048.20
2024-02-05T15:07:04.192Z,97045.09
2024-02-05T15:09:32.553Z,97046.75
2024-02-05T15:12:00.695Z,97054.93
2024-02-05T15:14:28.870Z,97048.46
2024-02-05T15:16:57.446Z,97039.91
2024-02-05T15:19:25.883Z,97041.35
2024-02-05T15:21:54.104Z,97041.02
2024-02-05T15:24:22.247Z,97045.99
2024-02-05T15:26:50.482Z,97049.21
2024-02-05T15:29:20.057Z,97051.64
2024-02-05T15:31:48.403Z,97057.19
2024-02-05T15:34:16.875Z,97061.92
2024-02-05T15:36:45.172Z,97065.90
2024-02-05T15:39:13.250Z,97065.73
2024-02-05T15:41:41.826Z,97067.50
2024-02-05T15:44:10.167Z,97068.42
2024-02-05T15:46:38.557Z,97074.11
2024-02-05T15:49:07.080Z,97077.66
2024-02-05T15:51:35.402Z,97079.45
2024-02-05T15:54:04.640Z,97088.42
2024-02-05T15:56:39.791Z,97091.27
2024-02-05T15:59:11.189Z,97096.05
2024-02-05T16:01:46.037Z,97093.16
2024-02-05T16:04:14.380Z,97095.36
2024-02-05T16:06:42.609Z,97100.63
2024-02-05T16:09:12.006Z,97106.73
2024-02-05T16:11:40.265Z,97107.57
2024-02-05T16:14:11.909Z,97106.18
2024-02-05T16:16:40.840Z,97105.05
2024-02-05T16:19:15.677Z,97103.05
2024-02-05T16:21:49.576Z,97109.88
2024-02-05T16:24:18.021Z,97122.15
2024-02-05T16:26:46.490Z,97125.05
2024-02-05T16:29:14.586Z,97124.57
2024-02-05T16:31:42.778Z,97124.36
2024-02-05T16:34:11.803Z,97126.84
2024-02-05T16:36:41.390Z,97136.95
2024-02-05T16:39:09.620Z,97140.13
2024-02-05T16:41:37.858Z,97147.27
2024-02-05T16:44:06.102Z,97155.48
2024-02-05T16:46:36.136Z,97160.04
2024-02-05T16:49:05.804Z,97158.45
2024-02-05T16:51:34.330Z,97156.73
2024-02-05T16:54:03.992Z,97158.30
2024-02-05T16:56:32.226Z,97163.89
2024-02-05T16:59:00.355Z,97178.64
2024-02-05T17:01:28.758Z,97177.89
2024-02-05T17:03:57.365Z,97179.34
2024-02-05T17:06:25.601Z,97186.60
2024-02-05T17:08:53.665Z,97183.00
2024-02-05T17:11:21.797Z,97171.21
2024-02-05T17:13:49.928Z,97175.57
2024-02-05T17:16:18.089Z,97175.63
2024-02-05T17:18:46.740Z,97175.89
2024-02-05T17:21:17.382Z,97176.39
2024-02-05T17:23:45.667Z,97179.55
2024-02-05T17:26:17.927Z,97179.62
2024-02-05T17:28:46.958Z,97188.64
2024-02-05T17:31:15.285Z,97190.86
2024-02-05T17:33:43.839Z,97193.07
2024-02-05T17:36:11.962Z,97193.38
2024-02-05T17:38:40.324Z,97195.81
2024-02-05T17:41:08.820Z,97191.33
2024-02-05T17:43:37.179Z,97186.02
2024-02-05T17:46:05.568Z,97174.97
2024-02-05T17:48:36.567Z,97181.27
2024-02-05T17:51:04.979Z,97179.49
2024-02-05T17:53:33.278Z,97176.06
2024-02-05T17:56:01.726Z,97202.42
2024-02-05T17:58:30.116Z,97202.49
2024-02-05T18:01:02.556Z,97196.79
2024-02-05T18:03:31.270Z,97193.35
2024-02-05T18:06:00.562Z,97205.51
2024-02-05T18:08:29.050Z,97204.55
2024-02-05T18:10:57.394Z,97199.49
2024-02-05T18:13:25.592Z,97194.12
2024-02-05T18:15:54.509Z,97192.02
2024-02-05T18:18:24.964Z,97201.23
2024-02-05T18:20:53.353Z,97207.20
2024-02-05T18:23:22.027Z,97209.73
2024-02-05T18:25:51.432Z,97205.00
2024-02-05T18:28:20.114Z,97196.83
2024-02-05T18:30:48.327Z,97214.81
2024-02-05T18:33:16.538Z,97228.04
2024-02-05T18:35:46.573Z,97234.72
2024-02-05T18:38:15.193Z,97246.02
2024-02-05T18:40:43.626Z,97245.98
2024-02-05T18:43:11.922Z,97244.84
2024-02-05T18:55:19.106Z,97259.05
2024-02-05T18:57:47.380Z,97258.64
2024-02-05T19:00:15.794Z,97257.84
2024-02-05T19:02:44.018Z,97258.92
2024-02-05T19:05:12.472Z,97255.19
2024-02-05T19:07:40.793Z,97255.98
2024-02-05T19:10:09.526Z,97253.95
2024-02-05T19:12:39.122Z,97261.43
2024-02-05T19:15:07.457Z,97257.30
2024-02-05T19:17:35.494Z,97260.47
2024-02-05T19:20:03.834Z,97264.23
2024-02-05T19:22:33.865Z,97260.84
2024-02-05T19:25:02.293Z,97265.80
2024-02-05T19:27:30.524Z,97269.02
2024-02-05T19:29:58.565Z,97267.41
2024-02-05T19:32:26.630Z,97276.17
2024-02-05T19:34:56.572Z,97283.05
2024-02-05T19:37:26.480Z,97293.51
2024-02-05T19:39:55.214Z,97295.32
2024-02-05T19:42:24.058Z,97295.98
2024-02-05T19:44:52.224Z,97304.00
2024-02-05T19:47:20.315Z,97301.17
2024-02-05T19:49:48.571Z,97293.48
2024-02-05T19:52:17.197Z,97289.23
2024-02-05T19:54:45.438Z,97287.62
2024-02-05T19:57:13.524Z,97289.61
2024-02-05T19:59:41.638Z,97285.09
2024-02-05T20:02:10.099Z,97292.36
2024-02-05T20:04:38.468Z,97291.51
2024-02-05T20:07:10.538Z,97286.98
2024-02-05T20:09:38.943Z,97285.91
2024-02-05T20:12:10.189Z,97285.80
2024-02-05T20:14:42.085Z,97290.82
2024-02-05T20:17:10.366Z,97293.17
2024-02-05T20:19:41.844Z,97295.77
2024-02-05T20:22:10.504Z,97297.60
2024-02-05T20:24:38.545Z,97301.57
2024-02-05T20:27:06.613Z,97303.02
2024-02-05T20:29:34.702Z,97303.34
2024-02-05T20:32:03.069Z,97294.85
2024-02-05T20:34:31.635Z,97291.61
2024-02-05T20:37:00.106Z,97288.53
2024-02-05T20:39:28.282Z,97294.75
2024-02-05T20:41:56.489Z,97295.17
2024-02-05T20:44:24.561Z,97295.92
2024-02-05T20:46:53.742Z,97304.70
2024-02-05T20:49:22.037Z,97305.55
2024-02-05T20:51:50.305Z,97293.08
2024-02-05T20:54:18.409Z,97297.00
2024-02-05T20:56:46.592Z,97303.61
2024-02-05T20:59:14.831Z,97300.93
2024-02-05T21:01:43.065Z,97312.08
2024-02-05T21:04:11.442Z,97310.20
2024-02-05T21:06:39.920Z,97307.73
2024-02-05T21:09:07.999Z,97314.23
2024-02-05T21:11:36.660Z,97315.58
2024-02-05T21:14:06.219Z,97322.59
2024-02-05T21:16:34.708Z,97332.64
2024-02-05T21:19:03.408Z,97341.90
2024-02-05T21:21:31.509Z,97342.83
2024-02-05T21:23:59.673Z,97340.89
2024-02-05T21:26:29.220Z,97342.94
2024-02-05T21:28:58.165Z,97346.48
2024-02-05T21:31:26.555Z,97346.70
2024-02-05T21:33:54.964Z,97348.70
2024-02-05T21:36:23.899Z,97349.08
2024-02-05T21:38:52.080Z,97341.29
2024-02-05T21:41:20.268Z,97342.09
2024-02-05T21:43:48.448Z,97341.61
2024-02-05T21:46:16.578Z,97344.73
2024-02-05T21:48:45.502Z,97345.02
2024-02-05T21:51:14.136Z,97341.92
2024-02-05T21:53:42.528Z,97344.49
2024-02-05T21:56:10.785Z,97340.11
2024-02-05T21:58:38.938Z,97336.01
2024-02-05T22:01:07.344Z,97347.66
2024-02-05T22:03:36.010Z,97351.73
2024-02-05T22:06:04.612Z,97343.85
2024-02-05T22:08:32.833Z,97353.64
2024-02-05T22:11:01.239Z,97364.98
2024-02-05T22:13:29.667Z,97368.72
2024-02-05T22:15:58.020Z,97369.36
2024-02-05T22:18:26.318Z,97370.04
2024-02-05T22:20:54.412Z,97378.91
2024-02-05T22:23:22.642Z,97383.73
2024-02-05T22:25:50.712Z,97394.56
2024-02-05T22:28:18.760Z,97400.30
2024-02-05T22:30:46.786Z,97398.59
2024-02-05T22:33:17.647Z,97402.27
2024-02-05T22:35:46.201Z,97404.83
2024-02-05T22:38:14.605Z,97407.58
2024-02-05T22:40:42.836Z,97415.69
2024-02-05T22:43:13.387Z,97415.63
2024-02-05T22:45:42.928Z,97422.27
2024-02-05T22:48:11.241Z,97427.17
2024-02-05T22:50:39.339Z,97426.55
2024-02-05T22:53:08.130Z,97425.22
2024-02-05T22:55:36.395Z,97418.35
2024-02-05T22:58:04.804Z,97423.11
2024-02-05T23:00:33.734Z,97423.98
2024-02-05T23:03:03.930Z,97418.08
2024-02-05T23:05:32.517Z,97420.95
2024-02-05T23:08:00.945Z,97421.80
2024-02-05T23:10:29.178Z,97420.36
2024-02-05T23:12:57.269Z,97425.54
2024-02-05T23:15:25.346Z,97433.48
2024-02-05T23:17:53.321Z,97440.26
2024-02-05T23:20:21.310Z,97442.05
2024-02-05T23:22:49.628Z,97447.89
2024-02-05T23:25:18.571Z,97456.29
2024-02-05T23:27:47.360Z,97458.88
2024-02-05T23:30:16.525Z,97457.73
2024-02-05T23:32:44.969Z,97456.05
2024-02-05T23:35:13.640Z,97453.55
2024-02-05T23:37:41.677Z,97445.91
2024-02-05T23:40:10.331Z,97434.14
2024-02-05T23:42:39.639Z,97432.52
2024-02-05T23:45:08.070Z,97434.29
2024-02-05T23:47:36.067Z,97434.63
2024-02-05T23:50:04.432Z,97437.48
2024-02-05T23:52:32.715Z,97447.08
2024-02-05T23:55:01.248Z,97451.63
2024-02-05T23:57:29.402Z,97453.13
2024-02-05T23:59:57.333Z,97453.77
